Time;durP1;ratioP1;P1;durP2;ratioP2;P2;SDS_P1;SDS_P2;PMS_P1;PMS_P2;Temp;Humidity;BMP_temperature;BMP_pressure;BME280_temperature;BME280_humidity;BME280_pressure;Samples;Min_cycle;Max_cycle;Signal;HPM_P1;HPM_P2
2023/06/28 00:00:10;;;;;;;5.30;1.00;;;18.40;99.90;;;17.39;100.00;97855.81;5044502;28;20551;-74
2023/06/28 00:02:38;;;;;;;5.88;1.00;;;18.40;99.90;;;17.52;100.00;97854.88;5042019;28;20103;-74
2023/06/28 00:05:09;;;;;;;3.65;1.17;;;18.40;99.90;;;17.38;100.00;97857.59;5041216;28;20128;-75
2023/06/28 00:07:36;;;;;;;4.25;1.23;;;18.40;99.90;;;17.23;100.00;97855.97;5058958;28;20152;-75
2023/06/28 00:10:04;;;;;;;3.05;1.30;;;18.30;99.90;;;17.33;100.00;97849.16;5040458;28;20071;-75
2023/06/28 00:12:33;;;;;;;4.25;1.13;;;18.30;99.90;;;17.23;100.00;97854.19;5024724;28;20080;-74
2023/06/28 00:15:00;;;;;;;4.68;0.98;;;18.40;99.90;;;17.27;100.00;97846.97;5043166;28;20073;-74
2023/06/28 00:17:27;;;;;;;6.55;1.20;;;18.30;99.90;;;17.07;100.00;97848.25;5024780;28;20110;-75
2023/06/28 00:19:56;;;;;;;5.57;1.00;;;18.30;99.90;;;17.10;100.00;97853.28;5041937;28;20053;-75
2023/06/28 00:22:29;;;;;;;3.47;0.95;;;18.20;99.90;;;17.14;100.00;97852.16;5040495;28;20150;-74
2023/06/28 00:24:58;;;;;;;5.75;1.13;;;18.20;99.90;;;17.18;100.00;97858.88;5044658;28;20041;-75
2023/06/28 00:27:29;;;;;;;4.30;1.05;;;18.20;99.90;;;17.05;100.00;97864.06;5045090;28;20076;-75
2023/06/28 00:29:57;;;;;;;3.03;1.05;;;18.10;99.90;;;16.79;100.00;97860.50;5043891;28;20045;-74
2023/06/28 00:32:26;;;;;;;7.00;1.00;;;18.00;99.90;;;17.03;100.00;97860.69;5041741;28;20478;-75
2023/06/28 00:34:53;;;;;;;5.63;0.95;;;18.00;99.90;;;16.88;100.00;97859.09;5043521;28;20498;-74
2023/06/28 00:37:21;;;;;;;4.70;1.20;;;18.00;99.90;;;16.97;100.00;97861.13;5042808;28;20083;-74
2023/06/28 00:39:48;;;;;;;5.57;1.00;;;18.00;99.90;;;16.76;100.00;97855.41;5039063;28;20537;-74
2023/06/28 00:42:15;;;;;;;4.80;1.00;;;18.00;99.90;;;16.85;100.00;97859.25;5042608;28;20056;-75
2023/06/28 00:44:42;;;;;;;2.60;0.95;;;18.00;99.90;;;16.89;100.00;97856.34;5036572;28;20049;-74
2023/06/28 00:47:10;;;;;;;4.72;1.05;;;17.90;99.90;;;16.91;100.00;97851.84;5046054;28;20049;-75
2023/06/28 00:49:40;;;;;;;3.67;1.05;;;17.90;99.90;;;17.07;100.00;97856.13;5042319;28;20076;-74
2023/06/28 00:52:11;;;;;;;4.82;0.90;;;17.90;99.90;;;17.01;100.00;97846.00;5045805;28;20044;-74
2023/06/28 00:54:40;;;;;;;5.78;1.45;;;18.00;99.90;;;16.92;100.00;97850.94;5041121;28;20115;-74
2023/06/28 00:57:08;;;;;;;5.63;1.05;;;18.00;99.90;;;16.85;100.00;97854.00;5028685;28;20052;-75
2023/06/28 00:59:36;;;;;;;6.85;1.23;;;17.90;99.90;;;16.88;100.00;97849.44;5030965;28;20076;-74
2023/06/28 01:02:03;;;;;;;5.25;1.33;;;17.90;99.90;;;16.88;100.00;97853.84;5044231;28;20076;-74
2023/06/28 01:04:30;;;;;;;5.22;1.25;;;17.90;99.90;;;16.84;100.00;97852.34;5041500;28;20049;-74
2023/06/28 01:06:59;;;;;;;4.90;1.08;;;17.90;99.90;;;16.75;100.00;97855.53;5044897;28;20183;-74
2023/06/28 01:09:28;;;;;;;3.85;0.95;;;17.90;99.90;;;16.78;100.00;97855.31;5044848;28;20404;-74
2023/06/28 01:11:56;;;;;;;3.72;1.27;;;17.80;99.90;;;16.77;100.00;97851.84;5047219;28;20048;-73
2023/06/28 01:14:25;;;;;;;6.35;1.05;;;17.80;99.90;;;16.50;100.00;97860.50;5034125;28;20528;-74
2023/06/28 01:16:55;;;;;;;5.43;1.10;;;17.80;99.90;;;16.34;100.00;97861.56;5047378;28;20127;-74
2023/06/28 01:19:27;;;;;;;5.43;1.02;;;17.70;99.90;;;16.32;100.00;97869.50;5042465;28;20481;-74
2023/06/28 01:22:02;;;;;;;5.72;1.20;;;17.60;99.90;;;16.39;100.00;97864.72;5045585;28;20060;-75
2023/06/28 01:24:29;;;;;;;4.65;1.20;;;17.60;99.90;;;16.25;100.00;97865.59;5046666;28;20057;-74
2023/06/28 01:26:58;;;;;;;3.20;1.02;;;17.50;99.90;;;16.27;100.00;97869.78;5042810;28;20494;-74
2023/06/28 01:29:26;;;;;;;5.90;1.00;;;17.50;99.90;;;16.41;100.00;97873.34;5046983;28;20053;-75
2023/06/28 01:31:56;;;;;;;3.75;1.10;;;17.40;99.90;;;16.38;100.00;97869.13;5046927;28;20128;-75
2023/06/28 01:34:27;;;;;;;1.83;0.82;;;17.40;99.90;;;16.27;100.00;97866.34;5027365;28;20076;-75
2023/06/28 01:36:58;;;;;;;4.60;1.25;;;17.40;99.90;;;16.10;100.00;97869.94;5029507;28;20131;-74
2023/06/28 01:39:26;;;;;;;4.38;1.00;;;17.30;99.90;;;16.01;100.00;97874.00;5046029;28;20053;-74
2023/06/28 01:41:54;;;;;;;2.97;1.00;;;17.30;99.90;;;16.03;100.00;97871.25;5030735;28;20057;-74
2023/06/28 01:44:22;;;;;;;5.85;1.15;;;17.20;99.90;;;16.04;100.00;97879.03;5028323;28;20063;-71
2023/06/28 01:46:51;;;;;;;4.97;1.25;;;17.20;99.90;;;15.98;100.00;97873.31;5044704;28;20140;-74
2023/06/28 01:49:19;;;;;;;5.75;1.00;;;17.20;99.90;;;16.00;100.00;97882.75;5044657;28;20048;-74
2023/06/28 01:51:46;;;;;;;5.05;1.13;;;17.20;99.90;;;16.02;100.00;97875.66;5040886;28;20124;-75
2023/06/28 01:54:15;;;;;;;3.42;1.20;;;17.20;99.90;;;16.10;100.00;97881.28;5046337;28;20516;-73
2023/06/28 01:56:42;;;;;;;5.80;1.30;;;17.20;99.90;;;16.07;100.00;97881.47;5042169;28;20045;-75
2023/06/28 01:59:10;;;;;;;7.40;1.05;;;17.20;99.90;;;16.09;100.00;97881.38;5043161;28;20053;-75
2023/06/28 02:01:37;;;;;;;5.13;0.93;;;17.20;99.90;;;15.97;100.00;97880.34;5047045;28;20455;-74
2023/06/28 02:04:04;;;;;;;6.78;1.10;;;17.10;99.90;;;16.02;100.00;97873.03;5040824;28;20724;-75
2023/06/28 02:06:32;;;;;;;4.35;1.15;;;17.10;99.90;;;16.13;100.00;97874.19;5043556;28;20045;-75
2023/06/28 02:08:59;;;;;;;4.25;1.20;;;17.10;99.90;;;15.97;100.00;97876.88;5045925;28;20053;-74
2023/06/28 02:11:27;;;;;;;5.72;0.98;;;17.10;99.90;;;15.98;100.00;97876.78;5044037;28;20122;-74
2023/06/28 02:13:54;;;;;;;4.55;1.23;;;17.10;99.90;;;15.95;100.00;97881.38;5044153;28;20068;-75
2023/06/28 02:16:22;;;;;;;3.45;0.90;;;17.10;99.90;;;16.02;100.00;97872.22;5045587;28;20142;-75
2023/06/28 02:18:51;;;;;;;4.38;0.75;;;17.10;99.90;;;16.02;100.00;97870.44;5043615;28;20103;-75
2023/06/28 02:21:18;;;;;;;3.70;1.00;;;17.10;99.90;;;16.03;100.00;97866.88;5047103;28;20412;-74
2023/06/28 02:23:45;;;;;;;3.67;1.17;;;17.10;99.90;;;16.17;100.00;97871.28;5043573;28;20113;-74
2023/06/28 02:26:12;;;;;;;4.57;0.85;;;17.20;99.90;;;16.10;100.00;97875.19;5044357;28;20041;-74
2023/06/28 02:28:39;;;;;;;3.30;1.10;;;17.20;99.90;;;16.22;100.00;97877.09;5046024;28;20053;-74
2023/06/28 02:31:07;;;;;;;6.40;0.90;;;17.20;99.90;;;16.36;100.00;97868.38;5044461;28;20041;-75
2023/06/28 02:33:34;;;;;;;4.25;0.85;;;17.20;99.90;;;16.41;100.00;97862.88;5040812;28;20447;-75
2023/06/28 02:36:01;;;;;;;5.30;1.00;;;17.30;99.90;;;16.42;100.00;97865.41;5046458;28;20575;-75
2023/06/28 02:38:29;;;;;;;2.45;1.00;;;17.30;99.90;;;16.34;100.00;97867.63;5045281;28;20114;-74
2023/06/28 02:40:56;;;;;;;4.85;1.13;;;17.30;99.90;;;16.30;100.00;97868.75;5043022;28;20049;-74
2023/06/28 02:43:23;;;;;;;4.05;1.00;;;17.30;99.90;;;16.32;100.00;97856.41;5043997;28;20052;-75
2023/06/28 02:45:50;;;;;;;5.85;1.20;;;17.30;99.90;;;16.17;100.00;97867.81;5041840;28;20045;-75
2023/06/28 02:48:18;;;;;;;7.72;1.10;;;17.30;99.90;;;16.31;100.00;97858.19;5061311;28;20060;-74
2023/06/28 02:50:45;;;;;;;2.85;1.02;;;17.30;99.90;;;16.18;100.00;97857.25;5036277;28;20049;-74
2023/06/28 02:53:12;;;;;;;5.70;1.17;;;17.30;99.90;;;16.17;100.00;97863.44;5040287;28;20081;-75
2023/06/28 02:55:39;;;;;;;3.35;1.10;;;17.20;99.90;;;16.12;100.00;97862.00;5044234;28;20081;-74
2023/06/28 02:58:06;;;;;;;4.53;0.98;;;17.20;99.90;;;15.86;100.00;97865.25;5041490;28;20056;-74
2023/06/28 03:00:33;;;;;;;3.00;1.02;;;17.10;99.90;;;15.81;100.00;97869.94;5038108;28;20056;-75
2023/06/28 03:03:03;;;;;;;2.65;1.10;;;17.10;99.90;;;15.73;100.00;97863.47;5022888;28;20792;-75
2023/06/28 03:05:31;;;;;;;6.32;1.00;;;17.00;99.90;;;15.74;100.00;97868.63;5039023;28;20072;-72
2023/06/28 03:07:58;;;;;;;3.53;1.00;;;16.90;99.90;;;15.73;100.00;97868.69;5040352;28;20111;-75
2023/06/28 03:10:28;;;;;;;4.70;1.00;;;16.90;99.90;;;15.78;100.00;97870.13;5040006;28;20148;-74
2023/06/28 03:12:55;;;;;;;3.70;1.13;;;16.90;99.90;;;15.81;100.00;97864.69;5040633;28;20056;-74
2023/06/28 03:15:22;;;;;;;4.32;1.02;;;16.80;99.90;;;15.93;100.00;97870.97;5042004;28;20465;-73
2023/06/28 03:17:49;;;;;;;3.75;1.10;;;16.90;99.90;;;15.80;100.00;97870.84;5038322;28;20203;-75
2023/06/28 03:20:17;;;;;;;6.35;1.30;;;16.90;99.90;;;15.71;100.00;97878.41;5052911;28;20049;-74
2023/06/28 03:22:44;;;;;;;3.38;1.20;;;16.80;99.90;;;15.63;100.00;97871.00;5040289;28;20048;-74
2023/06/28 03:25:11;;;;;;;6.28;1.50;;;16.80;99.90;;;15.78;100.00;97869.25;5038649;28;20473;-74
2023/06/28 03:27:38;;;;;;;2.42;1.00;;;16.70;99.90;;;15.96;100.00;97869.94;5037566;28;20420;-73
2023/06/28 03:30:06;;;;;;;5.95;0.98;;;16.80;99.90;;;15.90;100.00;97868.56;5041290;28;20048;-73
2023/06/28 03:32:34;;;;;;;4.40;1.00;;;16.90;99.90;;;15.97;100.00;97871.66;5039536;28;20103;-74
2023/06/28 03:35:02;;;;;;;3.38;0.90;;;16.90;99.90;;;15.96;100.00;97870.78;5037996;28;20053;-74
2023/06/28 03:37:29;;;;;;;6.43;1.90;;;16.90;99.90;;;16.02;100.00;97867.81;5039303;28;20072;-73
2023/06/28 03:39:56;;;;;;;4.25;1.00;;;17.00;99.90;;;16.07;100.00;97865.75;5040598;28;20054;-74
2023/06/28 03:42:23;;;;;;;3.47;0.98;;;17.00;99.90;;;15.97;100.00;97863.78;5040199;28;20057;-74
2023/06/28 03:44:51;;;;;;;5.22;1.02;;;17.00;99.90;;;15.98;100.00;97858.44;5019494;28;20053;-74
2023/06/28 03:47:18;;;;;;;4.25;1.05;;;17.00;99.90;;;15.97;100.00;97862.00;5037704;28;20171;-74
2023/06/28 03:49:46;;;;;;;3.85;1.23;;;17.00;99.90;;;15.98;100.00;97861.06;5036862;28;20049;-74
2023/06/28 03:52:13;;;;;;;7.60;1.02;;;17.00;99.90;;;16.22;100.00;97864.00;5038328;28;20670;-72
2023/06/28 03:54:41;;;;;;;5.97;1.10;;;17.10;99.90;;;16.22;100.00;97860.53;5039782;28;20099;-74
2023/06/28 03:57:08;;;;;;;5.28;0.80;;;17.10;99.90;;;16.12;100.00;97865.47;5038935;28;20045;-75
2023/06/28 03:59:35;;;;;;;5.57;1.20;;;17.10;99.90;;;15.86;100.00;97870.50;5038914;28;20134;-74
2023/06/28 04:02:02;;;;;;;3.33;0.98;;;17.10;99.90;;;15.92;100.00;97871.06;5039009;28;20064;-74
2023/06/28 04:04:29;;;;;;;4.07;1.48;;;17.00;99.90;;;15.91;100.00;97872.84;5038441;28;20064;-74
2023/06/28 04:06:56;;;;;;;3.15;0.90;;;17.00;99.90;;;15.94;100.00;97874.44;5037744;28;20061;-74
2023/06/28 04:09:23;;;;;;;3.75;1.20;;;17.00;99.90;;;15.85;100.00;97875.81;5035969;28;20068;-74
2023/06/28 04:11:50;;;;;;;3.60;1.00;;;17.00;99.90;;;15.94;100.00;97882.28;5039010;28;20048;-73
2023/06/28 04:14:17;;;;;;;5.43;1.30;;;16.90;99.90;;;15.99;100.00;97877.66;5039471;28;20123;-74
2023/06/28 04:16:45;;;;;;;2.65;0.90;;;17.00;99.90;;;15.94;100.00;97882.28;5036619;28;20502;-75
2023/06/28 04:19:12;;;;;;;6.70;1.52;;;16.90;99.90;;;15.91;100.00;97878.06;5055984;28;20087;-75
2023/06/28 04:21:39;;;;;;;6.75;1.33;;;17.00;99.90;;;15.95;100.00;97876.97;5024289;28;20646;-75
2023/06/28 04:24:06;;;;;;;7.80;1.63;;;17.00;99.90;;;15.90;100.00;97879.03;5047120;28;20056;-75
2023/06/28 04:26:33;;;;;;;5.45;1.45;;;17.00;99.90;;;15.92;100.00;97877.16;5046825;28;20591;-73
2023/06/28 04:29:00;;;;;;;4.93;1.13;;;16.90;99.90;;;16.09;100.00;97870.91;5044106;28;20116;-74
2023/06/28 04:31:28;;;;;;;6.10;1.20;;;17.00;99.90;;;16.16;100.00;97864.34;5048593;28;20048;-74
2023/06/28 04:33:59;;;;;;;6.32;2.03;;;17.10;99.90;;;16.25;100.00;97866.41;5029093;28;20043;-75
2023/06/28 04:36:27;;;;;;;2.33;0.80;;;17.00;99.90;;;16.34;100.00;97859.78;5042767;28;20045;-74
2023/06/28 04:38:54;;;;;;;3.47;1.20;;;17.20;99.90;;;16.49;100.00;97858.00;5047423;28;20564;-74
2023/06/28 04:41:25;;;;;;;5.47;1.20;;;17.20;99.90;;;16.50;100.00;97857.88;5047745;28;20052;-71
2023/06/28 04:43:56;;;;;;;4.40;1.27;;;17.30;99.90;;;16.52;100.00;97861.25;5028044;28;20063;-74
2023/06/28 04:46:27;;;;;;;3.35;1.02;;;17.30;99.90;;;16.76;100.00;97865.06;5028002;28;20073;-74
2023/06/28 04:48:56;;;;;;;5.47;1.05;;;17.50;99.90;;;16.70;100.00;97864.50;5044347;28;20057;-75
2023/06/28 04:51:23;;;;;;;3.45;1.13;;;17.40;99.90;;;16.64;100.00;97869.28;5043688;28;20192;-74
2023/06/28 04:53:50;;;;;;;4.00;0.90;;;17.50;99.90;;;16.84;100.00;97875.94;5045326;28;20103;-74
2023/06/28 04:56:18;;;;;;;3.72;1.30;;;17.60;99.90;;;16.90;100.00;97865.91;5029851;28;20056;-75
2023/06/28 04:58:45;;;;;;;5.80;1.30;;;17.60;99.90;;;16.83;100.00;97876.88;5027770;28;20154;-74
2023/06/28 05:01:12;;;;;;;4.68;1.10;;;17.70;99.90;;;16.96;100.00;97874.31;5042078;28;20055;-75
2023/06/28 05:03:39;;;;;;;4.63;1.33;;;17.70;99.90;;;17.02;100.00;97873.94;5041474;28;20053;-74
2023/06/28 05:06:09;;;;;;;7.20;1.52;;;17.80;99.90;;;17.01;100.00;97870.44;5041090;28;20589;-74
2023/06/28 05:08:36;;;;;;;5.88;1.10;;;17.80;99.90;;;17.03;100.00;97865.94;5040550;28;20077;-72
2023/06/28 05:11:03;;;;;;;2.50;0.82;;;17.80;99.90;;;17.16;100.00;97867.78;5043848;28;20045;-74
2023/06/28 05:13:30;;;;;;;4.22;1.05;;;17.90;99.90;;;17.50;100.00;97858.56;5046497;28;20061;-74
2023/06/28 05:15:58;;;;;;;5.85;1.30;;;18.00;99.90;;;17.78;100.00;97852.28;5044664;28;20072;-74
2023/06/28 05:18:25;;;;;;;3.28;0.77;;;18.20;99.90;;;17.94;100.00;97854.75;5040987;28;20108;-73
2023/06/28 05:20:52;;;;;;;3.70;1.23;;;18.40;99.90;;;18.12;100.00;97858.75;5045084;28;20059;-74
2023/06/28 05:23:20;;;;;;;4.13;1.20;;;18.50;99.90;;;18.29;100.00;97856.72;5048967;28;20053;-74
2023/06/28 05:25:51;;;;;;;5.13;1.48;;;18.80;99.90;;;18.51;100.00;97849.03;5029581;28;20480;-75
2023/06/28 05:28:18;;;;;;;4.10;1.10;;;18.90;99.90;;;18.72;100.00;97849.28;5047076;28;20053;-75
2023/06/28 05:30:45;;;;;;;4.18;1.27;;;19.10;99.90;;;18.87;100.00;97843.94;5043414;28;20516;-75
2023/06/28 05:33:12;;;;;;;6.15;1.00;;;19.20;99.90;;;18.60;100.00;97842.28;5043586;28;20045;-73
2023/06/28 05:35:39;;;;;;;5.85;1.13;;;19.40;99.90;;;18.77;100.00;97849.84;5046199;28;20048;-74
2023/06/28 05:38:07;;;;;;;5.00;1.30;;;19.40;99.90;;;18.45;100.00;97838.97;5040109;28;20143;-75
2023/06/28 05:40:35;;;;;;;4.53;1.00;;;19.30;99.90;;;18.56;100.00;97841.66;5056812;28;20056;-74
2023/06/28 05:43:02;;;;;;;3.53;1.15;;;19.30;99.90;;;18.91;100.00;97843.59;5041962;28;20549;-74
2023/06/28 05:45:33;;;;;;;6.18;1.35;;;19.40;99.90;;;18.99;100.00;97841.22;5043379;28;20048;-73
2023/06/28 05:48:00;;;;;;;7.28;1.08;;;19.50;99.90;;;19.03;100.00;97849.75;5045859;28;20505;-75
2023/06/28 05:50:27;;;;;;;3.97;1.20;;;19.50;99.90;;;18.94;100.00;97850.44;5041257;28;20061;-75
2023/06/28 05:52:55;;;;;;;3.88;1.00;;;19.50;99.90;;;18.91;100.00;97848.88;5042775;28;20134;-75
2023/06/28 05:55:22;;;;;;;2.55;1.00;;;19.50;99.90;;;19.15;100.00;97848.03;5063495;28;20141;-75
2023/06/28 05:57:49;;;;;;;5.18;1.38;;;19.60;99.90;;;19.12;100.00;97846.44;5042993;28;20370;-75
2023/06/28 06:00:17;;;;;;;3.75;1.00;;;19.70;99.90;;;19.10;100.00;97847.53;5048196;28;20163;-74
2023/06/28 06:02:44;;;;;;;7.20;1.20;;;19.80;99.90;;;19.15;100.00;97848.03;5021297;28;20081;-74
2023/06/28 06:05:15;;;;;;;5.97;1.00;;;19.80;99.90;;;19.12;100.00;97854.34;5044129;28;20132;-74
2023/06/28 06:07:42;;;;;;;3.95;1.23;;;19.80;99.90;;;19.10;100.00;97848.34;5041466;28;20060;-73
2023/06/28 06:10:09;;;;;;;5.78;1.10;;;19.80;99.90;;;19.16;100.00;97852.34;5029064;28;20102;-74
2023/06/28 06:12:37;;;;;;;3.05;0.93;;;19.80;99.90;;;19.25;100.00;97846.41;5045547;28;20500;-74
2023/06/28 06:15:06;;;;;;;3.53;0.98;;;19.80;99.90;;;19.05;100.00;97847.84;5047679;28;20049;-72
2023/06/28 06:17:33;;;;;;;3.88;1.13;;;19.90;99.90;;;18.83;100.00;97853.81;5046879;28;20155;-74
2023/06/28 06:20:01;;;;;;;5.55;1.15;;;19.80;99.90;;;18.99;100.00;97859.66;5046252;28;20056;-74
2023/06/28 06:22:28;;;;;;;3.70;0.90;;;19.80;99.90;;;19.17;100.00;97857.47;5044756;28;20087;-74
2023/06/28 06:24:58;;;;;;;8.15;1.73;;;19.80;99.90;;;19.31;100.00;97864.34;5043897;28;20585;-74
2023/06/28 06:27:25;;;;;;;5.97;1.33;;;19.90;99.90;;;19.17;100.00;97867.16;5026743;28;20045;-74
2023/06/28 06:29:52;;;;;;;5.78;1.25;;;19.90;99.90;;;19.12;100.00;97871.94;5045698;28;20128;-74
2023/06/28 06:32:19;;;;;;;4.28;1.13;;;19.90;99.90;;;19.08;100.00;97870.47;5043866;28;20076;-74
2023/06/28 06:34:46;;;;;;;5.82;1.70;;;20.00;99.90;;;19.25;100.00;97870.09;5043493;28;20068;-74
2023/06/28 06:37:13;;;;;;;8.90;1.40;;;20.10;99.90;;;19.46;100.00;97859.75;5044794;28;20519;-74
2023/06/28 06:39:42;;;;;;;5.85;1.52;;;20.10;99.90;;;19.46;100.00;97869.47;5042376;28;20122;-74
2023/06/28 06:42:09;;;;;;;5.38;1.30;;;20.10;99.90;;;19.77;100.00;97868.84;5045059;28;20140;-73
2023/06/28 06:44:36;;;;;;;7.38;1.55;;;20.20;99.90;;;19.38;100.00;97870.84;5040030;28;20049;-73
2023/06/28 06:47:04;;;;;;;8.32;1.70;;;20.40;99.90;;;19.95;100.00;97869.25;5025958;28;20531;-74
2023/06/28 06:49:31;;;;;;;8.93;1.50;;;20.50;99.90;;;19.66;100.00;97874.09;5044764;28;20053;-73
2023/06/28 06:51:59;;;;;;;7.13;1.48;;;20.60;99.90;;;19.84;100.00;97864.81;5028725;28;20131;-74
2023/06/28 06:54:29;;;;;;;5.45;1.35;;;20.60;99.90;;;20.12;100.00;97865.34;5044257;28;20059;-73
2023/06/28 06:57:01;;;;;;;5.57;1.27;;;20.60;99.90;;;19.72;100.00;97872.81;5040243;28;20037;-74
2023/06/28 06:59:28;;;;;;;8.55;1.88;;;20.60;99.90;;;19.76;100.00;97874.25;5042807;28;20053;-74
2023/06/28 07:01:56;;;;;;;5.53;1.23;;;20.50;99.90;;;19.53;100.00;97876.78;5044240;28;20052;-73
2023/06/28 07:04:24;;;;;;;3.75;1.20;;;20.50;99.90;;;19.94;100.00;97874.66;5044379;28;20788;-73
2023/06/28 07:06:51;;;;;;;5.78;1.40;;;20.50;99.90;;;19.68;100.00;97868.69;5043355;28;20521;-73
2023/06/28 07:09:19;;;;;;;4.93;1.17;;;20.60;99.90;;;20.33;100.00;97865.47;5042473;28;20060;-73
2023/06/28 07:11:46;;;;;;;5.90;1.02;;;20.70;99.90;;;20.18;100.00;97866.66;5040264;28;20685;-73
2023/06/28 07:14:14;;;;;;;9.00;1.10;;;20.80;99.90;;;20.73;100.00;97859.72;5043617;28;20434;-75
2023/06/28 07:16:44;;;;;;;6.88;1.10;;;20.90;99.90;;;21.28;100.00;97860.56;5038095;28;20051;-74
2023/06/28 07:19:13;;;;;;;4.65;1.23;;;21.30;99.90;;;21.09;100.00;97858.56;5029118;28;20049;-74
2023/06/28 07:21:43;;;;;;;7.65;1.17;;;21.60;99.90;;;21.42;100.00;97864.75;5026618;28;20049;-74
2023/06/28 07:24:10;;;;;;;5.50;1.23;;;21.70;99.90;;;21.50;100.00;97870.22;5042700;28;20526;-74
2023/06/28 07:26:37;;;;;;;3.92;1.20;;;21.80;99.90;;;21.02;100.00;97867.13;5042028;28;20155;-74
2023/06/28 07:29:04;;;;;;;8.18;1.40;;;21.80;99.90;;;21.13;100.00;97867.09;5046394;28;20049;-73
2023/06/28 07:31:31;;;;;;;4.50;1.10;;;21.80;99.90;;;21.37;100.00;97860.75;5044453;28;20055;-74
2023/06/28 07:34:04;;;;;;;4.05;1.10;;;22.00;99.90;;;21.43;100.00;97870.84;5044909;28;20048;-74
2023/06/28 07:36:32;;;;;;;3.83;1.20;;;22.10;99.90;;;21.74;100.00;97863.03;5042203;28;20050;-75
2023/06/28 07:39:00;;;;;;;8.15;1.30;;;22.20;99.90;;;21.80;100.00;97850.13;5043638;28;20045;-74
2023/06/28 07:41:27;;;;;;;8.98;1.60;;;22.40;99.90;;;22.21;100.00;97855.50;5045311;28;20079;-74
2023/06/28 07:43:54;;;;;;;7.82;1.50;;;22.60;99.90;;;22.03;100.00;97861.44;5043751;28;20128;-72
2023/06/28 07:46:21;;;;;;;5.95;1.30;;;22.60;99.90;;;22.21;100.00;97859.03;5044890;28;20052;-74
2023/06/28 07:48:50;;;;;;;5.47;1.30;;;22.50;99.90;;;22.16;100.00;97857.72;5044519;28;20509;-72
2023/06/28 07:51:17;;;;;;;5.57;1.23;;;22.90;99.90;;;21.98;100.00;97860.94;5041205;28;20433;-74
2023/06/28 07:53:45;;;;;;;11.20;1.33;;;23.00;99.90;;;22.73;100.00;97851.84;5027249;28;20106;-74
2023/06/28 07:56:13;;;;;;;5.30;1.30;;;22.90;99.90;;;22.54;100.00;97851.81;5043082;28;20036;-73
2023/06/28 07:58:40;;;;;;;8.20;1.20;;;22.90;99.90;;;22.34;100.00;97848.25;5037609;28;20122;-74
2023/06/28 08:01:07;;;;;;;7.40;1.40;;;22.60;99.00;;;22.00;100.00;97842.34;5025267;28;20080;-73
2023/06/28 08:03:34;;;;;;;9.25;1.52;;;22.50;99.80;;;22.14;100.00;97836.69;5040421;28;20065;-74
2023/06/28 08:06:02;;;;;;;4.40;0.90;;;22.80;99.90;;;23.08;100.00;97831.19;5044776;28;20045;-73
2023/06/28 08:08:29;;;;;;;4.60;1.00;;;23.20;99.20;;;22.34;100.00;97835.00;5040215;28;20059;-73
2023/06/28 08:10:55;;;;;;;5.03;1.17;;;22.90;98.50;;;22.67;100.00;97838.31;5041814;28;20114;-74
2023/06/28 08:13:22;;;;;;;6.15;1.45;;;23.10;98.40;;;23.50;100.00;97833.59;5040527;28;20106;-72
2023/06/28 08:15:50;;;;;;;5.93;1.30;;;23.40;99.10;;;23.79;100.00;97825.63;5044267;28;20420;-74
2023/06/28 08:18:17;;;;;;;7.05;1.20;;;23.90;98.60;;;23.82;100.00;97827.16;5040121;28;20531;-72
2023/06/28 08:20:44;;;;;;;9.57;1.42;;;24.20;97.00;;;23.44;100.00;97828.84;5038525;28;20049;-74
2023/06/28 08:23:11;;;;;;;6.50;1.55;;;24.20;96.50;;;23.06;100.00;97831.34;5041701;28;20513;-74
2023/06/28 08:25:40;;;;;;;6.03;1.38;;;24.20;95.70;;;23.56;100.00;97819.75;5044793;28;20057;-75
2023/06/28 08:28:07;;;;;;;4.97;1.10;;;24.30;96.20;;;23.53;100.00;97820.03;5040846;28;20571;-74
2023/06/28 08:30:34;;;;;;;5.25;1.30;;;24.40;95.40;;;23.51;100.00;97829.94;5043645;28;20064;-74
2023/06/28 08:33:03;;;;;;;3.58;1.00;;;24.20;95.50;;;23.24;100.00;97839.44;5043906;28;20123;-74
2023/06/28 08:35:30;;;;;;;3.72;1.30;;;24.00;95.00;;;22.54;100.00;97841.22;5044172;28;20049;-75
2023/06/28 08:38:00;;;;;;;4.47;1.30;;;23.30;95.50;;;22.68;100.00;97835.53;5043189;28;20045;-74
2023/06/28 08:40:29;;;;;;;5.70;1.30;;;22.30;96.00;;;22.27;100.00;97839.16;5045229;28;20076;-74
2023/06/28 08:43:02;;;;;;;8.43;1.25;;;21.80;97.50;;;22.20;100.00;97840.63;5040861;28;20413;-74
2023/06/28 08:45:35;;;;;;;8.18;2.08;;;21.70;97.20;;;21.96;100.00;97846.19;5040657;28;20045;-71
2023/06/28 08:48:06;;;;;;;7.28;1.45;;;21.40;97.50;;;22.21;100.00;97847.56;5041638;28;20057;-73
2023/06/28 08:50:54;;;;;;;4.90;0.90;;;21.50;98.10;;;22.55;100.00;97846.34;5043108;28;20060;-73
2023/06/28 08:53:23;;;;;;;4.93;1.48;;;21.70;97.60;;;22.48;100.00;97855.81;5041355;28;20579;-74
2023/06/28 08:55:52;;;;;;;5.63;1.13;;;22.20;98.30;;;22.50;100.00;97845.94;5037609;28;20053;-75
2023/06/28 08:58:20;;;;;;;5.20;1.10;;;22.70;97.40;;;23.04;100.00;97841.22;5040024;28;20049;-74
2023/06/28 09:00:47;;;;;;;8.13;1.20;;;23.20;96.80;;;23.08;100.00;97842.63;5023967;28;20049;-74
2023/06/28 09:03:18;;;;;;;4.07;1.48;;;23.30;96.40;;;23.03;100.00;97838.72;5042900;28;20414;-75
2023/06/28 09:05:45;;;;;;;4.33;1.40;;;23.60;95.90;;;24.11;100.00;97817.31;5041400;28;20485;-75
2023/06/28 09:08:13;;;;;;;6.50;1.45;;;23.70;96.80;;;23.64;100.00;97811.94;5043681;28;20106;-72
2023/06/28 09:10:41;;;;;;;4.57;1.20;;;24.10;96.30;;;24.11;100.00;97811.19;5043201;28;20106;-72
2023/06/28 09:13:10;;;;;;;4.68;1.08;;;24.10;96.30;;;24.69;100.00;97813.59;5047470;28;20049;-74
2023/06/28 09:15:37;;;;;;;4.90;1.45;;;24.60;96.00;;;23.13;100.00;97821.88;5044550;28;20045;-74
2023/06/28 09:18:04;;;;;;;5.53;1.60;;;23.80;94.80;;;23.06;100.00;97818.09;5044927;28;20040;-73
2023/06/28 09:20:31;;;;;;;4.72;1.30;;;23.50;95.40;;;22.42;100.00;97832.56;5026668;28;20077;-74
2023/06/28 09:22:59;;;;;;;5.05;1.35;;;23.10;95.90;;;22.92;100.00;97832.56;5045701;28;20052;-74
2023/06/28 09:25:31;;;;;;;3.22;1.10;;;23.30;96.50;;;23.34;100.00;97827.03;5044892;28;20056;-73
2023/06/28 09:27:59;;;;;;;9.15;1.30;;;23.60;95.60;;;23.15;100.00;97829.69;5043846;28;20053;-73
2023/06/28 09:30:28;;;;;;;6.68;1.52;;;23.50;95.20;;;23.73;100.00;97820.88;5041571;28;20049;-74
2023/06/28 09:33:04;;;;;;;4.53;0.90;;;23.80;95.90;;;24.26;100.00;97824.78;5044565;28;20565;-74
2023/06/28 09:35:31;;;;;;;4.38;1.17;;;24.20;94.80;;;23.92;100.00;97817.34;5044370;28;20053;-74
2023/06/28 09:38:04;;;;;;;7.85;1.48;;;23.40;94.80;;;23.96;100.00;97818.75;5045150;28;20049;-74
2023/06/28 09:40:35;;;;;;;6.45;1.50;;;23.50;95.20;;;23.28;100.00;97821.44;5044194;28;20397;-73
2023/06/28 09:43:03;;;;;;;5.13;1.30;;;23.50;94.30;;;23.38;100.00;97823.13;5045666;28;20090;-73
2023/06/28 09:45:38;;;;;;;6.85;1.60;;;23.80;94.30;;;23.17;100.00;97827.72;5044305;28;20059;-74
2023/06/28 09:48:05;;;;;;;5.93;1.20;;;23.60;93.60;;;23.23;100.00;97829.81;5046541;28;20509;-73
2023/06/28 09:50:46;;;;;;;6.20;1.20;;;23.50;94.70;;;23.19;100.00;97831.06;5046511;28;20059;-74
2023/06/28 09:53:16;;;;;;;5.93;1.30;;;23.20;94.20;;;22.93;100.00;97841.31;5043569;28;20076;-73
2023/06/28 09:55:44;;;;;;;4.20;1.17;;;22.60;94.50;;;22.52;100.00;97829.94;5042512;28;20045;-75
2023/06/28 09:58:15;;;;;;;8.05;1.40;;;22.10;94.80;;;22.37;100.00;97828.63;5045682;28;20463;-74
2023/06/28 10:00:45;;;;;;;5.95;1.10;;;22.20;95.40;;;22.37;100.00;97823.31;5046025;28;20044;-74
2023/06/28 10:03:16;;;;;;;4.07;1.02;;;22.60;95.00;;;22.76;100.00;97834.84;5029520;28;20095;-74
2023/06/28 10:05:45;;;;;;;6.32;1.30;;;22.70;95.80;;;22.22;100.00;97828.16;5042914;28;20049;-74
2023/06/28 10:08:15;;;;;;;6.20;1.63;;;22.20;95.10;;;21.81;100.00;97830.69;5040086;28;20049;-76
2023/06/28 10:10:46;;;;;;;6.60;1.60;;;21.80;95.50;;;21.67;100.00;97837.13;5044984;28;20071;-75
2023/06/28 10:13:22;;;;;;;4.28;1.23;;;21.60;96.10;;;21.40;100.00;97839.41;5038383;28;20432;-74
2023/06/28 10:16:14;;;;;;;6.50;1.35;;;21.70;96.10;;;21.70;100.00;97838.66;5040293;28;20685;-74